Huntingburg, Indiana
Current Conditions -  °F | °C
As of 7:35 AM on Saturday 25 Oct 2014 (Local Time) from KHNB Reporting Station
Broken Clouds Broken Clouds  
Wind Chill: 55°   Ceiling: 2900
Heat Index: 55°   Visibility: 8mi
Dew Point: 52°   Wind: 6mph
Humidity: 88%   Direction: 230°SW
Pressure: 30.02"   Gusts: NA
Location:  38.3°N, 86.95°W
Report Text: KHNB 251235Z AUTO 23005KT 8SM BKN029 BKN043 13/11 A3002 RMK AO1
Loading
Personal Weather Stations






























Interactive Weather Map
Tropical Storm Tracking
New forecast layout! Learn more

10-Day Weather Forecast

Advertisements
Track Severe Weather on mobile